sensor_id;sensor_type;location;lat;lon;timestamp;P1;P2;P0
47741;PMS5003;33504;52.066;6.096;2023-08-30T00:00:56;16;16;
47741;PMS5003;33504;52.066;6.096;2023-08-30T00:03:23;25;25;
47741;PMS5003;33504;52.066;6.096;2023-08-30T00:05:50;14;13;
47741;PMS5003;33504;52.066;6.096;2023-08-30T00:08:17;19;19;
47741;PMS5003;33504;52.066;6.096;2023-08-30T00:10:45;16;16;
47741;PMS5003;33504;52.066;6.096;2023-08-30T00:13:12;19;17;
47741;PMS5003;33504;52.066;6.096;2023-08-30T00:15:39;18;16;
47741;PMS5003;33504;52.066;6.096;2023-08-30T00:18:06;14;14;
47741;PMS5003;33504;52.066;6.096;2023-08-30T00:20:33;17;17;
47741;PMS5003;33504;52.066;6.096;2023-08-30T00:23:00;18;17;
47741;PMS5003;33504;52.066;6.096;2023-08-30T00:25:27;19;18;
47741;PMS5003;33504;52.066;6.096;2023-08-30T00:27:54;19;18;
47741;PMS5003;33504;52.066;6.096;2023-08-30T00:30:21;17;16;
47741;PMS5003;33504;52.066;6.096;2023-08-30T00:32:48;13;12;
47741;PMS5003;33504;52.066;6.096;2023-08-30T00:35:15;17;16;
47741;PMS5003;33504;52.066;6.096;2023-08-30T00:37:43;15;14;
47741;PMS5003;33504;52.066;6.096;2023-08-30T00:40:10;15;15;
47741;PMS5003;33504;52.066;6.096;2023-08-30T00:42:37;15;14;
47741;PMS5003;33504;52.066;6.096;2023-08-30T00:45:05;17;17;
47741;PMS5003;33504;52.066;6.096;2023-08-30T00:47:32;15;15;
47741;PMS5003;33504;52.066;6.096;2023-08-30T00:50:00;14;14;
47741;PMS5003;33504;52.066;6.096;2023-08-30T00:52:27;18;16;
47741;PMS5003;33504;52.066;6.096;2023-08-30T00:54:54;20;19;
47741;PMS5003;33504;52.066;6.096;2023-08-30T00:57:21;14;14;
47741;PMS5003;33504;52.066;6.096;2023-08-30T00:59:49;15;15;
47741;PMS5003;33504;52.066;6.096;2023-08-30T01:02:18;18;18;
47741;PMS5003;33504;52.066;6.096;2023-08-30T01:04:45;22;21;
47741;PMS5003;33504;52.066;6.096;2023-08-30T01:07:12;17;16;
47741;PMS5003;33504;52.066;6.096;2023-08-30T01:09:39;17;15;
47741;PMS5003;33504;52.066;6.096;2023-08-30T01:12:08;17;17;
47741;PMS5003;33504;52.066;6.096;2023-08-30T01:14:43;23;23;
47741;PMS5003;33504;52.066;6.096;2023-08-30T01:17:16;24;23;
47741;PMS5003;33504;52.066;6.096;2023-08-30T01:19:47;13;12;
47741;PMS5003;33504;52.066;6.096;2023-08-30T01:22:21;15;15;
47741;PMS5003;33504;52.066;6.096;2023-08-30T01:25:09;12;12;
47741;PMS5003;33504;52.066;6.096;2023-08-30T01:27:44;19;18;
47741;PMS5003;33504;52.066;6.096;2023-08-30T01:30:14;13;13;
47741;PMS5003;33504;52.066;6.096;2023-08-30T01:32:42;17;16;
47741;PMS5003;33504;52.066;6.096;2023-08-30T01:35:10;18;18;
47741;PMS5003;33504;52.066;6.096;2023-08-30T01:37:39;15;14;
47741;PMS5003;33504;52.066;6.096;2023-08-30T01:40:06;19;18;
47741;PMS5003;33504;52.066;6.096;2023-08-30T01:42:35;19;18;
47741;PMS5003;33504;52.066;6.096;2023-08-30T01:45:05;14;14;
47741;PMS5003;33504;52.066;6.096;2023-08-30T01:47:36;16;15;
47741;PMS5003;33504;52.066;6.096;2023-08-30T01:50:05;19;18;
47741;PMS5003;33504;52.066;6.096;2023-08-30T01:52:32;27;27;
47741;PMS5003;33504;52.066;6.096;2023-08-30T01:55:01;18;18;
47741;PMS5003;33504;52.066;6.096;2023-08-30T01:57:29;17;17;
47741;PMS5003;33504;52.066;6.096;2023-08-30T01:59:56;17;16;
47741;PMS5003;33504;52.066;6.096;2023-08-30T02:02:23;18;18;
47741;PMS5003;33504;52.066;6.096;2023-08-30T02:04:49;21;20;
47741;PMS5003;33504;52.066;6.096;2023-08-30T02:07:18;23;22;
47741;PMS5003;33504;52.066;6.096;2023-08-30T02:09:49;24;23;
47741;PMS5003;33504;52.066;6.096;2023-08-30T02:12:23;16;16;
47741;PMS5003;33504;52.066;6.096;2023-08-30T02:14:54;17;17;
47741;PMS5003;33504;52.066;6.096;2023-08-30T02:17:22;21;21;
47741;PMS5003;33504;52.066;6.096;2023-08-30T02:19:50;21;20;
47741;PMS5003;33504;52.066;6.096;2023-08-30T02:22:17;15;15;
47741;PMS5003;33504;52.066;6.096;2023-08-30T02:24:45;26;25;
47741;PMS5003;33504;52.066;6.096;2023-08-30T02:27:12;31;30;
47741;PMS5003;33504;52.066;6.096;2023-08-30T02:29:39;24;22;
47741;PMS5003;33504;52.066;6.096;2023-08-30T02:32:06;18;16;
47741;PMS5003;33504;52.066;6.096;2023-08-30T02:34:34;21;20;
47741;PMS5003;33504;52.066;6.096;2023-08-30T02:37:01;21;21;
47741;PMS5003;33504;52.066;6.096;2023-08-30T02:39:27;22;21;
47741;PMS5003;33504;52.066;6.096;2023-08-30T02:41:54;22;22;
47741;PMS5003;33504;52.066;6.096;2023-08-30T02:44:21;31;31;
47741;PMS5003;33504;52.066;6.096;2023-08-30T02:46:48;17;17;
47741;PMS5003;33504;52.066;6.096;2023-08-30T02:49:15;25;24;
47741;PMS5003;33504;52.066;6.096;2023-08-30T02:51:42;18;17;
47741;PMS5003;33504;52.066;6.096;2023-08-30T02:54:08;21;20;
47741;PMS5003;33504;52.066;6.096;2023-08-30T02:56:35;26;24;
47741;PMS5003;33504;52.066;6.096;2023-08-30T02:59:02;37;37;
47741;PMS5003;33504;52.066;6.096;2023-08-30T03:01:29;18;18;
47741;PMS5003;33504;52.066;6.096;2023-08-30T03:03:56;30;29;
47741;PMS5003;33504;52.066;6.096;2023-08-30T03:06:23;18;17;
47741;PMS5003;33504;52.066;6.096;2023-08-30T03:08:50;18;18;
47741;PMS5003;33504;52.066;6.096;2023-08-30T03:11:19;32;30;
47741;PMS5003;33504;52.066;6.096;2023-08-30T03:13:46;19;19;
47741;PMS5003;33504;52.066;6.096;2023-08-30T03:16:14;19;19;
47741;PMS5003;33504;52.066;6.096;2023-08-30T03:18:42;20;20;
47741;PMS5003;33504;52.066;6.096;2023-08-30T03:21:10;17;17;
47741;PMS5003;33504;52.066;6.096;2023-08-30T03:23:38;16;16;
47741;PMS5003;33504;52.066;6.096;2023-08-30T03:26:09;22;21;
47741;PMS5003;33504;52.066;6.096;2023-08-30T03:28:37;23;22;
47741;PMS5003;33504;52.066;6.096;2023-08-30T03:31:10;18;18;
47741;PMS5003;33504;52.066;6.096;2023-08-30T03:33:38;24;22;
47741;PMS5003;33504;52.066;6.096;2023-08-30T03:36:05;20;18;
47741;PMS5003;33504;52.066;6.096;2023-08-30T03:38:32;21;21;
47741;PMS5003;33504;52.066;6.096;2023-08-30T03:40:59;26;25;
47741;PMS5003;33504;52.066;6.096;2023-08-30T03:43:26;27;26;
47741;PMS5003;33504;52.066;6.096;2023-08-30T03:45:54;24;24;
47741;PMS5003;33504;52.066;6.096;2023-08-30T03:48:21;23;21;
47741;PMS5003;33504;52.066;6.096;2023-08-30T03:50:47;24;24;
47741;PMS5003;33504;52.066;6.096;2023-08-30T03:53:15;22;22;
47741;PMS5003;33504;52.066;6.096;2023-08-30T03:55:41;21;20;
47741;PMS5003;33504;52.066;6.096;2023-08-30T03:58:09;42;41;
47741;PMS5003;33504;52.066;6.096;2023-08-30T04:00:36;26;25;
47741;PMS5003;33504;52.066;6.096;2023-08-30T04:03:04;22;21;
47741;PMS5003;33504;52.066;6.096;2023-08-30T04:05:32;27;27;
47741;PMS5003;33504;52.066;6.096;2023-08-30T04:07:59;25;25;
47741;PMS5003;33504;52.066;6.096;2023-08-30T04:10:27;26;25;
47741;PMS5003;33504;52.066;6.096;2023-08-30T04:12:53;27;27;
47741;PMS5003;33504;52.066;6.096;2023-08-30T04:15:21;28;28;
47741;PMS5003;33504;52.066;6.096;2023-08-30T04:17:48;37;35;
47741;PMS5003;33504;52.066;6.096;2023-08-30T04:20:15;32;32;
47741;PMS5003;33504;52.066;6.096;2023-08-30T04:22:42;25;24;
47741;PMS5003;33504;52.066;6.096;2023-08-30T04:25:09;26;25;
47741;PMS5003;33504;52.066;6.096;2023-08-30T04:27:36;28;27;
47741;PMS5003;33504;52.066;6.096;2023-08-30T04:30:04;34;32;
47741;PMS5003;33504;52.066;6.096;2023-08-30T04:32:31;42;42;
47741;PMS5003;33504;52.066;6.096;2023-08-30T04:34:59;28;28;
47741;PMS5003;33504;52.066;6.096;2023-08-30T04:37:28;35;33;
47741;PMS5003;33504;52.066;6.096;2023-08-30T04:39:57;44;44;
47741;PMS5003;33504;52.066;6.096;2023-08-30T04:42:24;22;22;
47741;PMS5003;33504;52.066;6.096;2023-08-30T04:44:51;42;41;
47741;PMS5003;33504;52.066;6.096;2023-08-30T04:47:19;45;45;
47741;PMS5003;33504;52.066;6.096;2023-08-30T04:49:49;26;25;
47741;PMS5003;33504;52.066;6.096;2023-08-30T04:52:17;26;26;
47741;PMS5003;33504;52.066;6.096;2023-08-30T04:54:44;39;36;
47741;PMS5003;33504;52.066;6.096;2023-08-30T04:57:11;21;20;
47741;PMS5003;33504;52.066;6.096;2023-08-30T04:59:38;24;22;
47741;PMS5003;33504;52.066;6.096;2023-08-30T05:02:05;23;21;
47741;PMS5003;33504;52.066;6.096;2023-08-30T05:04:32;25;25;
47741;PMS5003;33504;52.066;6.096;2023-08-30T05:06:59;30;26;
47741;PMS5003;33504;52.066;6.096;2023-08-30T05:09:26;24;24;
47741;PMS5003;33504;52.066;6.096;2023-08-30T05:11:54;24;23;
47741;PMS5003;33504;52.066;6.096;2023-08-30T05:14:21;28;27;
47741;PMS5003;33504;52.066;6.096;2023-08-30T05:16:48;32;28;
47741;PMS5003;33504;52.066;6.096;2023-08-30T05:19:15;24;23;
47741;PMS5003;33504;52.066;6.096;2023-08-30T05:21:43;26;26;
47741;PMS5003;33504;52.066;6.096;2023-08-30T05:24:10;34;31;
47741;PMS5003;33504;52.066;6.096;2023-08-30T05:26:37;28;27;
47741;PMS5003;33504;52.066;6.096;2023-08-30T05:29:05;48;47;
47741;PMS5003;33504;52.066;6.096;2023-08-30T05:31:32;32;31;
47741;PMS5003;33504;52.066;6.096;2023-08-30T05:33:59;31;29;
47741;PMS5003;33504;52.066;6.096;2023-08-30T05:36:26;42;41;
47741;PMS5003;33504;52.066;6.096;2023-08-30T05:38:53;36;35;
47741;PMS5003;33504;52.066;6.096;2023-08-30T05:41:20;31;31;
47741;PMS5003;33504;52.066;6.096;2023-08-30T05:43:48;42;40;
47741;PMS5003;33504;52.066;6.096;2023-08-30T05:46:15;34;33;
47741;PMS5003;33504;52.066;6.096;2023-08-30T05:48:42;37;37;
47741;PMS5003;33504;52.066;6.096;2023-08-30T05:51:09;35;34;
47741;PMS5003;33504;52.066;6.096;2023-08-30T05:53:36;51;50;
47741;PMS5003;33504;52.066;6.096;2023-08-30T05:56:03;28;27;
47741;PMS5003;33504;52.066;6.096;2023-08-30T05:58:30;36;35;
47741;PMS5003;33504;52.066;6.096;2023-08-30T06:00:57;36;35;
47741;PMS5003;33504;52.066;6.096;2023-08-30T06:03:24;35;33;
47741;PMS5003;33504;52.066;6.096;2023-08-30T06:05:51;38;37;
47741;PMS5003;33504;52.066;6.096;2023-08-30T06:08:19;34;31;
47741;PMS5003;33504;52.066;6.096;2023-08-30T06:10:46;38;35;
47741;PMS5003;33504;52.066;6.096;2023-08-30T06:13:13;35;33;
47741;PMS5003;33504;52.066;6.096;2023-08-30T06:15:40;36;32;
47741;PMS5003;33504;52.066;6.096;2023-08-30T06:18:07;35;34;
47741;PMS5003;33504;52.066;6.096;2023-08-30T06:20:35;34;33;
47741;PMS5003;33504;52.066;6.096;2023-08-30T06:23:06;30;29;
47741;PMS5003;33504;52.066;6.096;2023-08-30T06:25:32;32;32;
47741;PMS5003;33504;52.066;6.096;2023-08-30T06:28:00;35;34;
47741;PMS5003;33504;52.066;6.096;2023-08-30T06:30:27;37;35;
47741;PMS5003;33504;52.066;6.096;2023-08-30T06:32:54;39;37;
47741;PMS5003;33504;52.066;6.096;2023-08-30T06:35:21;40;38;
47741;PMS5003;33504;52.066;6.096;2023-08-30T06:37:49;41;37;
47741;PMS5003;33504;52.066;6.096;2023-08-30T06:40:16;38;37;
47741;PMS5003;33504;52.066;6.096;2023-08-30T06:42:43;40;39;
47741;PMS5003;33504;52.066;6.096;2023-08-30T06:45:10;39;39;
47741;PMS5003;33504;52.066;6.096;2023-08-30T06:47:37;43;41;
47741;PMS5003;33504;52.066;6.096;2023-08-30T06:50:05;41;41;
47741;PMS5003;33504;52.066;6.096;2023-08-30T06:52:32;32;32;
47741;PMS5003;33504;52.066;6.096;2023-08-30T06:55:00;40;40;
47741;PMS5003;33504;52.066;6.096;2023-08-30T06:57:27;39;37;
47741;PMS5003;33504;52.066;6.096;2023-08-30T06:59:54;40;39;
47741;PMS5003;33504;52.066;6.096;2023-08-30T07:02:21;35;35;
47741;PMS5003;33504;52.066;6.096;2023-08-30T07:04:48;40;40;
47741;PMS5003;33504;52.066;6.096;2023-08-30T07:07:15;35;35;
47741;PMS5003;33504;52.066;6.096;2023-08-30T07:09:42;35;32;
47741;PMS5003;33504;52.066;6.096;2023-08-30T07:12:10;39;37;
47741;PMS5003;33504;52.066;6.096;2023-08-30T07:14:37;36;32;
47741;PMS5003;33504;52.066;6.096;2023-08-30T07:17:03;32;32;
47741;PMS5003;33504;52.066;6.096;2023-08-30T07:19:31;40;39;
47741;PMS5003;33504;52.066;6.096;2023-08-30T07:21:58;37;34;
47741;PMS5003;33504;52.066;6.096;2023-08-30T07:24:24;41;37;
47741;PMS5003;33504;52.066;6.096;2023-08-30T07:26:52;37;37;
47741;PMS5003;33504;52.066;6.096;2023-08-30T07:29:19;36;35;
47741;PMS5003;33504;52.066;6.096;2023-08-30T07:31:46;39;37;
47741;PMS5003;33504;52.066;6.096;2023-08-30T07:34:12;41;41;
47741;PMS5003;33504;52.066;6.096;2023-08-30T07:36:40;38;36;
47741;PMS5003;33504;52.066;6.096;2023-08-30T07:39:07;39;39;
47741;PMS5003;33504;52.066;6.096;2023-08-30T07:41:34;42;41;
47741;PMS5003;33504;52.066;6.096;2023-08-30T07:44:00;40;38;
47741;PMS5003;33504;52.066;6.096;2023-08-30T07:46:28;36;36;
47741;PMS5003;33504;52.066;6.096;2023-08-30T07:48:55;40;39;
47741;PMS5003;33504;52.066;6.096;2023-08-30T07:51:23;36;36;
47741;PMS5003;33504;52.066;6.096;2023-08-30T07:53:49;40;38;
47741;PMS5003;33504;52.066;6.096;2023-08-30T07:56:17;35;34;
47741;PMS5003;33504;52.066;6.096;2023-08-30T07:58:43;42;38;
47741;PMS5003;33504;52.066;6.096;2023-08-30T08:01:10;36;36;
47741;PMS5003;33504;52.066;6.096;2023-08-30T08:03:37;38;36;
47741;PMS5003;33504;52.066;6.096;2023-08-30T08:06:04;37;35;
47741;PMS5003;33504;52.066;6.096;2023-08-30T08:08:31;36;35;
47741;PMS5003;33504;52.066;6.096;2023-08-30T08:10:58;32;32;
47741;PMS5003;33504;52.066;6.096;2023-08-30T08:13:25;35;33;
47741;PMS5003;33504;52.066;6.096;2023-08-30T08:15:55;33;31;
47741;PMS5003;33504;52.066;6.096;2023-08-30T08:18:22;33;32;
47741;PMS5003;33504;52.066;6.096;2023-08-30T08:20:49;33;32;
47741;PMS5003;33504;52.066;6.096;2023-08-30T08:23:17;33;33;
47741;PMS5003;33504;52.066;6.096;2023-08-30T08:25:44;35;34;
47741;PMS5003;33504;52.066;6.096;2023-08-30T08:28:11;31;30;
47741;PMS5003;33504;52.066;6.096;2023-08-30T08:30:38;39;38;
47741;PMS5003;33504;52.066;6.096;2023-08-30T08:33:05;35;33;
47741;PMS5003;33504;52.066;6.096;2023-08-30T08:35:32;29;28;
47741;PMS5003;33504;52.066;6.096;2023-08-30T08:37:59;30;30;
47741;PMS5003;33504;52.066;6.096;2023-08-30T08:40:27;31;29;
47741;PMS5003;33504;52.066;6.096;2023-08-30T08:42:54;35;33;
47741;PMS5003;33504;52.066;6.096;2023-08-30T08:45:22;28;27;
47741;PMS5003;33504;52.066;6.096;2023-08-30T08:47:50;25;24;
47741;PMS5003;33504;52.066;6.096;2023-08-30T08:50:18;25;25;
47741;PMS5003;33504;52.066;6.096;2023-08-30T08:52:45;28;26;
47741;PMS5003;33504;52.066;6.096;2023-08-30T08:55:13;25;25;
47741;PMS5003;33504;52.066;6.096;2023-08-30T08:57:41;24;24;
47741;PMS5003;33504;52.066;6.096;2023-08-30T09:00:10;29;27;
47741;PMS5003;33504;52.066;6.096;2023-08-30T09:02:39;24;24;
47741;PMS5003;33504;52.066;6.096;2023-08-30T09:05:07;25;25;
47741;PMS5003;33504;52.066;6.096;2023-08-30T09:07:36;32;30;
47741;PMS5003;33504;52.066;6.096;2023-08-30T09:10:04;32;31;
47741;PMS5003;33504;52.066;6.096;2023-08-30T09:12:32;35;35;
47741;PMS5003;33504;52.066;6.096;2023-08-30T09:15:00;33;31;
47741;PMS5003;33504;52.066;6.096;2023-08-30T09:17:35;40;36;
47741;PMS5003;33504;52.066;6.096;2023-08-30T09:20:06;33;32;
47741;PMS5003;33504;52.066;6.096;2023-08-30T09:22:36;35;35;
47741;PMS5003;33504;52.066;6.096;2023-08-30T09:25:03;32;30;
47741;PMS5003;33504;52.066;6.096;2023-08-30T09:27:32;39;39;
47741;PMS5003;33504;52.066;6.096;2023-08-30T09:29:59;38;38;
47741;PMS5003;33504;52.066;6.096;2023-08-30T09:32:26;39;38;
47741;PMS5003;33504;52.066;6.096;2023-08-30T09:34:52;44;41;
47741;PMS5003;33504;52.066;6.096;2023-08-30T09:37:20;42;39;
47741;PMS5003;33504;52.066;6.096;2023-08-30T09:39:48;39;37;
47741;PMS5003;33504;52.066;6.096;2023-08-30T09:42:16;38;38;
47741;PMS5003;33504;52.066;6.096;2023-08-30T09:44:43;34;32;
47741;PMS5003;33504;52.066;6.096;2023-08-30T09:47:12;33;31;
47741;PMS5003;33504;52.066;6.096;2023-08-30T09:49:42;43;37;
47741;PMS5003;33504;52.066;6.096;2023-08-30T09:52:10;35;33;
47741;PMS5003;33504;52.066;6.096;2023-08-30T09:54:38;37;35;
47741;PMS5003;33504;52.066;6.096;2023-08-30T09:57:06;36;35;
47741;PMS5003;33504;52.066;6.096;2023-08-30T09:59:33;46;44;
47741;PMS5003;33504;52.066;6.096;2023-08-30T10:02:01;31;30;
47741;PMS5003;33504;52.066;6.096;2023-08-30T10:04:29;34;32;
47741;PMS5003;33504;52.066;6.096;2023-08-30T10:06:57;34;33;
47741;PMS5003;33504;52.066;6.096;2023-08-30T10:09:25;34;34;
47741;PMS5003;33504;52.066;6.096;2023-08-30T10:11:53;33;32;
47741;PMS5003;33504;52.066;6.096;2023-08-30T10:14:21;31;31;
47741;PMS5003;33504;52.066;6.096;2023-08-30T10:16:49;28;27;
47741;PMS5003;33504;52.066;6.096;2023-08-30T10:19:25;26;24;
47741;PMS5003;33504;52.066;6.096;2023-08-30T10:21:55;23;22;
47741;PMS5003;33504;52.066;6.096;2023-08-30T10:24:27;26;25;
47741;PMS5003;33504;52.066;6.096;2023-08-30T10:26:55;24;24;
47741;PMS5003;33504;52.066;6.096;2023-08-30T10:29:24;21;20;
47741;PMS5003;33504;52.066;6.096;2023-08-30T10:31:52;23;23;
47741;PMS5003;33504;52.066;6.096;2023-08-30T10:34:19;22;22;
47741;PMS5003;33504;52.066;6.096;2023-08-30T10:36:56;25;23;
47741;PMS5003;33504;52.066;6.096;2023-08-30T10:39:27;23;23;
47741;PMS5003;33504;52.066;6.096;2023-08-30T10:42:00;23;23;
47741;PMS5003;33504;52.066;6.096;2023-08-30T10:44:27;24;24;
47741;PMS5003;33504;52.066;6.096;2023-08-30T10:46:54;22;22;
47741;PMS5003;33504;52.066;6.096;2023-08-30T10:49:21;25;24;
47741;PMS5003;33504;52.066;6.096;2023-08-30T10:51:56;20;18;
47741;PMS5003;33504;52.066;6.096;2023-08-30T10:54:24;21;19;
47741;PMS5003;33504;52.066;6.096;2023-08-30T10:56:55;22;20;
47741;PMS5003;33504;52.066;6.096;2023-08-30T10:59:23;22;21;
47741;PMS5003;33504;52.066;6.096;2023-08-30T11:01:51;20;19;
47741;PMS5003;33504;52.066;6.096;2023-08-30T11:04:19;19;18;
47741;PMS5003;33504;52.066;6.096;2023-08-30T11:06:47;25;25;
47741;PMS5003;33504;52.066;6.096;2023-08-30T11:09:16;18;18;
47741;PMS5003;33504;52.066;6.096;2023-08-30T11:11:45;25;24;
47741;PMS5003;33504;52.066;6.096;2023-08-30T11:14:12;22;21;
47741;PMS5003;33504;52.066;6.096;2023-08-30T11:16:39;22;21;
47741;PMS5003;33504;52.066;6.096;2023-08-30T11:19:07;23;21;
47741;PMS5003;33504;52.066;6.096;2023-08-30T11:21:36;17;17;
47741;PMS5003;33504;52.066;6.096;2023-08-30T11:24:04;23;22;
47741;PMS5003;33504;52.066;6.096;2023-08-30T11:26:32;22;22;
47741;PMS5003;33504;52.066;6.096;2023-08-30T11:29:03;30;28;
47741;PMS5003;33504;52.066;6.096;2023-08-30T11:31:31;21;21;
47741;PMS5003;33504;52.066;6.096;2023-08-30T11:33:58;18;18;
47741;PMS5003;33504;52.066;6.096;2023-08-30T11:36:26;23;23;
47741;PMS5003;33504;52.066;6.096;2023-08-30T11:38:55;18;18;
47741;PMS5003;33504;52.066;6.096;2023-08-30T11:41:23;19;19;
47741;PMS5003;33504;52.066;6.096;2023-08-30T11:43:51;22;21;
47741;PMS5003;33504;52.066;6.096;2023-08-30T11:46:18;21;21;
47741;PMS5003;33504;52.066;6.096;2023-08-30T11:48:47;18;18;
47741;PMS5003;33504;52.066;6.096;2023-08-30T11:51:16;16;16;
47741;PMS5003;33504;52.066;6.096;2023-08-30T11:53:44;26;25;
47741;PMS5003;33504;52.066;6.096;2023-08-30T11:56:12;20;20;
47741;PMS5003;33504;52.066;6.096;2023-08-30T11:58:40;22;22;
47741;PMS5003;33504;52.066;6.096;2023-08-30T12:01:07;19;18;
47741;PMS5003;33504;52.066;6.096;2023-08-30T12:03:35;18;17;
47741;PMS5003;33504;52.066;6.096;2023-08-30T12:06:01;18;18;
47741;PMS5003;33504;52.066;6.096;2023-08-30T12:08:29;20;20;
47741;PMS5003;33504;52.066;6.096;2023-08-30T12:10:58;21;20;
47741;PMS5003;33504;52.066;6.096;2023-08-30T12:13:25;18;18;
47741;PMS5003;33504;52.066;6.096;2023-08-30T12:15:53;17;16;
47741;PMS5003;33504;52.066;6.096;2023-08-30T12:18:21;15;15;
47741;PMS5003;33504;52.066;6.096;2023-08-30T12:20:52;18;17;
47741;PMS5003;33504;52.066;6.096;2023-08-30T12:23:21;17;17;
47741;PMS5003;33504;52.066;6.096;2023-08-30T12:26:05;25;25;
47741;PMS5003;33504;52.066;6.096;2023-08-30T12:28:33;13;13;
47741;PMS5003;33504;52.066;6.096;2023-08-30T12:31:01;14;14;
47741;PMS5003;33504;52.066;6.096;2023-08-30T12:33:28;11;11;
47741;PMS5003;33504;52.066;6.096;2023-08-30T12:35:56;17;16;
47741;PMS5003;33504;52.066;6.096;2023-08-30T12:38:23;12;12;
47741;PMS5003;33504;52.066;6.096;2023-08-30T12:40:51;14;12;
47741;PMS5003;33504;52.066;6.096;2023-08-30T12:43:20;10;10;
47741;PMS5003;33504;52.066;6.096;2023-08-30T12:45:48;18;16;
47741;PMS5003;33504;52.066;6.096;2023-08-30T12:48:16;16;15;
47741;PMS5003;33504;52.066;6.096;2023-08-30T12:50:45;10;8;
47741;PMS5003;33504;52.066;6.096;2023-08-30T12:53:12;16;15;
47741;PMS5003;33504;52.066;6.096;2023-08-30T12:55:40;8;8;
47741;PMS5003;33504;52.066;6.096;2023-08-30T12:58:08;13;13;
47741;PMS5003;33504;52.066;6.096;2023-08-30T13:00:35;10;10;
47741;PMS5003;33504;52.066;6.096;2023-08-30T13:03:02;9;8;
47741;PMS5003;33504;52.066;6.096;2023-08-30T13:05:30;10;8;
47741;PMS5003;33504;52.066;6.096;2023-08-30T13:07:57;6;6;
47741;PMS5003;33504;52.066;6.096;2023-08-30T13:10:24;8;7;
47741;PMS5003;33504;52.066;6.096;2023-08-30T13:12:52;7;7;
47741;PMS5003;33504;52.066;6.096;2023-08-30T13:15:19;7;7;
47741;PMS5003;33504;52.066;6.096;2023-08-30T13:17:46;8;8;
47741;PMS5003;33504;52.066;6.096;2023-08-30T13:20:14;6;5;
47741;PMS5003;33504;52.066;6.096;2023-08-30T13:22:41;8;7;
47741;PMS5003;33504;52.066;6.096;2023-08-30T13:25:09;7;6;
47741;PMS5003;33504;52.066;6.096;2023-08-30T13:27:36;7;7;
47741;PMS5003;33504;52.066;6.096;2023-08-30T13:30:04;5;5;
47741;PMS5003;33504;52.066;6.096;2023-08-30T13:32:32;6;6;
47741;PMS5003;33504;52.066;6.096;2023-08-30T13:34:59;7;7;
47741;PMS5003;33504;52.066;6.096;2023-08-30T13:37:26;7;6;
47741;PMS5003;33504;52.066;6.096;2023-08-30T13:39:54;6;6;
47741;PMS5003;33504;52.066;6.096;2023-08-30T13:42:20;6;6;
47741;PMS5003;33504;52.066;6.096;2023-08-30T13:44:50;8;6;
47741;PMS5003;33504;52.066;6.096;2023-08-30T13:47:17;6;6;
47741;PMS5003;33504;52.066;6.096;2023-08-30T13:49:45;11;11;
47741;PMS5003;33504;52.066;6.096;2023-08-30T13:52:13;9;9;
47741;PMS5003;33504;52.066;6.096;2023-08-30T13:54:40;5;5;
47741;PMS5003;33504;52.066;6.096;2023-08-30T13:57:08;5;5;
47741;PMS5003;33504;52.066;6.096;2023-08-30T13:59:35;5;5;
47741;PMS5003;33504;52.066;6.096;2023-08-30T14:02:02;5;4;
47741;PMS5003;33504;52.066;6.096;2023-08-30T14:04:30;5;5;
47741;PMS5003;33504;52.066;6.096;2023-08-30T14:06:57;7;6;
47741;PMS5003;33504;52.066;6.096;2023-08-30T14:09:24;5;4;
47741;PMS5003;33504;52.066;6.096;2023-08-30T14:11:52;5;4;
47741;PMS5003;33504;52.066;6.096;2023-08-30T14:14:19;5;5;
47741;PMS5003;33504;52.066;6.096;2023-08-30T14:16:46;4;4;
47741;PMS5003;33504;52.066;6.096;2023-08-30T14:19:14;5;5;
47741;PMS5003;33504;52.066;6.096;2023-08-30T14:21:43;6;6;
47741;PMS5003;33504;52.066;6.096;2023-08-30T14:24:10;4;3;
47741;PMS5003;33504;52.066;6.096;2023-08-30T14:26:37;5;5;
47741;PMS5003;33504;52.066;6.096;2023-08-30T14:29:05;5;5;
47741;PMS5003;33504;52.066;6.096;2023-08-30T14:31:32;4;4;
47741;PMS5003;33504;52.066;6.096;2023-08-30T14:33:59;5;5;
47741;PMS5003;33504;52.066;6.096;2023-08-30T14:36:27;20;20;
47741;PMS5003;33504;52.066;6.096;2023-08-30T14:38:54;20;20;
47741;PMS5003;33504;52.066;6.096;2023-08-30T14:41:21;6;5;
47741;PMS5003;33504;52.066;6.096;2023-08-30T14:43:49;4;4;
47741;PMS5003;33504;52.066;6.096;2023-08-30T14:46:16;5;5;
47741;PMS5003;33504;52.066;6.096;2023-08-30T14:48:44;5;5;
47741;PMS5003;33504;52.066;6.096;2023-08-30T14:51:11;7;6;
47741;PMS5003;33504;52.066;6.096;2023-08-30T14:53:38;5;5;
47741;PMS5003;33504;52.066;6.096;2023-08-30T14:56:06;5;4;
47741;PMS5003;33504;52.066;6.096;2023-08-30T14:58:33;6;6;
47741;PMS5003;33504;52.066;6.096;2023-08-30T15:01:01;6;6;
47741;PMS5003;33504;52.066;6.096;2023-08-30T15:03:28;5;5;
47741;PMS5003;33504;52.066;6.096;2023-08-30T15:05:56;5;4;
47741;PMS5003;33504;52.066;6.096;2023-08-30T15:08:23;5;4;
47741;PMS5003;33504;52.066;6.096;2023-08-30T15:10:51;3;3;
47741;PMS5003;33504;52.066;6.096;2023-08-30T15:13:19;3;3;
47741;PMS5003;33504;52.066;6.096;2023-08-30T15:15:46;5;5;
47741;PMS5003;33504;52.066;6.096;2023-08-30T15:18:14;5;4;
47741;PMS5003;33504;52.066;6.096;2023-08-30T15:20:41;7;5;
47741;PMS5003;33504;52.066;6.096;2023-08-30T15:23:11;5;5;
47741;PMS5003;33504;52.066;6.096;2023-08-30T15:25:39;4;4;
47741;PMS5003;33504;52.066;6.096;2023-08-30T15:28:06;5;4;
47741;PMS5003;33504;52.066;6.096;2023-08-30T15:30:33;3;3;
47741;PMS5003;33504;52.066;6.096;2023-08-30T15:33:01;4;4;
47741;PMS5003;33504;52.066;6.096;2023-08-30T15:35:28;5;4;
47741;PMS5003;33504;52.066;6.096;2023-08-30T15:37:55;4;3;
47741;PMS5003;33504;52.066;6.096;2023-08-30T15:40:23;4;4;
47741;PMS5003;33504;52.066;6.096;2023-08-30T15:42:50;3;3;
47741;PMS5003;33504;52.066;6.096;2023-08-30T15:45:18;3;3;
47741;PMS5003;33504;52.066;6.096;2023-08-30T15:47:45;3;3;
47741;PMS5003;33504;52.066;6.096;2023-08-30T15:50:13;3;3;
47741;PMS5003;33504;52.066;6.096;2023-08-30T15:52:40;2;2;
47741;PMS5003;33504;52.066;6.096;2023-08-30T15:55:07;4;3;
47741;PMS5003;33504;52.066;6.096;2023-08-30T15:57:35;4;4;
47741;PMS5003;33504;52.066;6.096;2023-08-30T16:00:03;3;3;
47741;PMS5003;33504;52.066;6.096;2023-08-30T16:02:30;3;3;
47741;PMS5003;33504;52.066;6.096;2023-08-30T16:04:57;3;3;
47741;PMS5003;33504;52.066;6.096;2023-08-30T16:07:24;1;1;
47741;PMS5003;33504;52.066;6.096;2023-08-30T16:09:52;3;3;
47741;PMS5003;33504;52.066;6.096;2023-08-30T16:12:19;3;2;
47741;PMS5003;33504;52.066;6.096;2023-08-30T16:14:47;3;3;
47741;PMS5003;33504;52.066;6.096;2023-08-30T16:17:14;3;2;
47741;PMS5003;33504;52.066;6.096;2023-08-30T16:19:42;6;6;
47741;PMS5003;33504;52.066;6.096;2023-08-30T16:22:08;7;7;
47741;PMS5003;33504;52.066;6.096;2023-08-30T16:24:36;2;2;
47741;PMS5003;33504;52.066;6.096;2023-08-30T16:27:03;2;2;